createdAt,value
2022-09-07T00:01:51.048Z,49.06
2022-09-07T00:04:18.876Z,50.74
2022-09-07T00:06:47.030Z,51.69
2022-09-07T00:09:15.893Z,51.97
2022-09-07T00:11:43.481Z,52.00
2022-09-07T00:14:11.073Z,52.83
2022-09-07T00:16:38.697Z,52.93
2022-09-07T00:19:06.287Z,52.78
2022-09-07T00:21:34.062Z,53.62
2022-09-07T00:24:01.592Z,54.27
2022-09-07T00:26:32.181Z,53.99
2022-09-07T00:29:01.816Z,53.99
2022-09-07T00:31:31.380Z,54.17
2022-09-07T00:34:01.871Z,54.59
2022-09-07T00:36:30.707Z,54.91
2022-09-07T00:38:59.483Z,54.65
2022-09-07T00:41:27.978Z,55.32
2022-09-07T00:43:58.958Z,56.98
2022-09-07T00:46:29.007Z,57.19
2022-09-07T00:49:01.574Z,57.89
2022-09-07T00:51:33.409Z,59.29
2022-09-07T00:54:06.765Z,59.59
2022-09-07T00:56:37.634Z,59.62
2022-09-07T00:59:07.283Z,59.91
2022-09-07T01:01:35.468Z,61.88
2022-09-07T01:04:04.597Z,61.81
2022-09-07T01:06:34.417Z,62.72
2022-09-07T01:09:04.989Z,63.34
2022-09-07T01:11:34.730Z,64.38
2022-09-07T01:14:04.417Z,64.52
2022-09-07T01:16:55.842Z,63.80
2022-09-07T01:20:10.473Z,64.84
2022-09-07T01:22:55.927Z,65.88
2022-09-07T01:25:34.815Z,65.14
2022-09-07T01:28:13.214Z,65.07
2022-09-07T01:30:46.376Z,66.73
2022-09-07T01:33:30.982Z,66.23
2022-09-07T01:36:06.884Z,66.58
2022-09-07T01:38:42.767Z,67.94
2022-09-07T01:41:17.630Z,68.61
2022-09-07T01:43:51.324Z,68.30
2022-09-07T01:46:23.607Z,68.33
2022-09-07T01:48:55.023Z,66.36
2022-09-07T01:51:28.985Z,65.78
2022-09-07T01:54:00.201Z,64.71
2022-09-07T01:56:34.312Z,65.04
2022-09-07T01:59:05.857Z,67.16
2022-09-07T02:01:39.663Z,66.75
2022-09-07T02:04:11.708Z,66.20
2022-09-07T02:06:46.478Z,66.18
2022-09-07T02:09:19.800Z,66.97
2022-09-07T02:11:50.055Z,67.49
2022-09-07T02:14:23.559Z,68.28
2022-09-07T02:16:56.895Z,67.96
2022-09-07T02:19:27.952Z,68.23
2022-09-07T02:22:01.622Z,68.98
2022-09-07T02:24:34.085Z,69.10
2022-09-07T02:27:06.502Z,69.22
2022-09-07T02:29:35.540Z,69.44
2022-09-07T02:32:03.598Z,69.86
2022-09-07T02:34:32.188Z,69.96
2022-09-07T02:37:02.645Z,69.93
2022-09-07T02:39:30.436Z,69.91
2022-09-07T02:41:58.109Z,70.33
2022-09-07T02:44:29.061Z,70.17
2022-09-07T02:47:12.274Z,69.65
2022-09-07T02:49:55.314Z,68.86
2022-09-07T02:52:32.980Z,69.64
2022-09-07T02:55:10.900Z,69.03
2022-09-07T02:57:47.655Z,70.24
2022-09-07T03:00:19.196Z,70.18
2022-09-07T03:02:56.532Z,69.70
2022-09-07T03:05:26.960Z,69.51
2022-09-07T03:08:00.878Z,69.07
2022-09-07T03:10:29.351Z,70.27
2022-09-07T03:12:56.906Z,70.74
2022-09-07T03:15:26.677Z,71.85
2022-09-07T03:17:55.713Z,70.61
2022-09-07T03:20:24.094Z,70.26
2022-09-07T03:22:53.100Z,72.94
2022-09-07T03:25:23.034Z,71.03
2022-09-07T03:27:50.604Z,71.00
2022-09-07T03:30:18.440Z,69.48
2022-09-07T03:32:45.956Z,70.02
2022-09-07T03:35:15.159Z,70.49
2022-09-07T03:37:42.696Z,69.19
2022-09-07T03:40:13.134Z,68.76
2022-09-07T03:42:41.345Z,70.38
2022-09-07T03:45:10.358Z,71.89
2022-09-07T03:47:38.632Z,71.17
2022-09-07T03:50:07.589Z,70.50
2022-09-07T03:52:36.823Z,71.56
2022-09-07T03:55:05.033Z,70.73
2022-09-07T03:57:32.567Z,70.20
2022-09-07T04:00:00.184Z,70.38
2022-09-07T04:02:27.781Z,70.97
2022-09-07T04:04:55.371Z,70.18
2022-09-07T04:07:22.927Z,70.61
2022-09-07T04:09:52.234Z,71.13
2022-09-07T04:12:19.747Z,69.20
2022-09-07T04:14:47.306Z,70.07
2022-09-07T04:17:14.886Z,69.97
2022-09-07T04:19:42.505Z,70.35
2022-09-07T04:22:10.044Z,70.74
2022-09-07T04:24:37.593Z,69.74
2022-09-07T04:27:06.623Z,69.79
2022-09-07T04:29:34.206Z,68.81
2022-09-07T04:32:01.829Z,69.87
2022-09-07T04:34:29.672Z,69.75
2022-09-07T04:36:57.190Z,70.39
2022-09-07T04:39:24.794Z,69.56
2022-09-07T04:41:52.326Z,69.08
2022-09-07T04:44:21.244Z,70.05
2022-09-07T04:46:48.808Z,69.99
2022-09-07T04:49:16.389Z,69.71
2022-09-07T04:51:44.297Z,69.33
2022-09-07T04:54:12.401Z,69.18
2022-09-07T04:56:39.990Z,70.01
2022-09-07T04:59:07.622Z,69.27
2022-09-07T05:01:36.575Z,69.72
2022-09-07T05:04:05.070Z,69.85
2022-09-07T05:06:32.724Z,70.68
2022-09-07T05:09:00.558Z,70.14
2022-09-07T05:11:29.803Z,69.35
2022-09-07T05:13:58.030Z,70.03
2022-09-07T05:16:26.121Z,70.16
2022-09-07T05:18:57.052Z,70.26
2022-09-07T05:21:26.661Z,70.66
2022-09-07T05:23:56.823Z,70.82
2022-09-07T05:26:26.784Z,70.17
2022-09-07T05:31:42.473Z,70.57
2022-09-07T05:36:59.155Z,69.00
2022-09-07T05:39:27.120Z,69.28
2022-09-07T05:41:54.753Z,68.69
2022-09-07T05:47:10.684Z,68.21
2022-09-07T05:49:39.648Z,70.99
2022-09-07T05:52:07.245Z,71.77
2022-09-07T05:54:34.901Z,71.79
2022-09-07T05:57:03.348Z,71.69
2022-09-07T05:59:30.921Z,71.08
2022-09-07T06:01:58.470Z,71.67
2022-09-07T06:04:26.160Z,71.06
2022-09-07T06:12:30.166Z,69.65
2022-09-07T06:14:57.741Z,70.10
2022-09-07T06:17:25.281Z,69.14
2022-09-07T06:19:52.825Z,70.37
2022-09-07T06:22:21.796Z,70.33
2022-09-07T06:24:49.362Z,69.88
2022-09-07T06:27:16.896Z,68.50
2022-09-07T06:29:44.438Z,68.49
2022-09-07T06:34:59.571Z,69.06
2022-09-07T06:37:28.454Z,69.19
2022-09-07T06:39:56.092Z,69.37
2022-09-07T06:42:23.797Z,68.85
2022-09-07T06:44:51.372Z,69.71
2022-09-07T06:47:18.888Z,69.19
2022-09-07T06:49:46.454Z,69.06
2022-09-07T06:52:13.987Z,69.46
2022-09-07T06:57:26.998Z,68.25
2022-09-07T06:59:54.526Z,68.64
2022-09-07T07:02:22.266Z,68.94
2022-09-07T07:04:51.202Z,68.86
2022-09-07T07:07:18.881Z,68.03
2022-09-07T07:09:47.773Z,68.01
2022-09-07T07:14:52.429Z,68.91
2022-09-07T07:17:19.951Z,69.21
2022-09-07T07:19:47.554Z,67.78
2022-09-07T07:25:04.969Z,67.46
2022-09-07T07:27:32.751Z,66.48
2022-09-07T07:30:00.332Z,66.60
2022-09-07T07:32:27.886Z,67.29
2022-09-07T07:34:55.373Z,66.23
2022-09-07T07:37:27.778Z,66.54
2022-09-07T07:42:45.611Z,65.78
2022-09-07T07:48:01.811Z,65.60
2022-09-07T07:50:31.294Z,65.50
2022-09-07T07:55:50.998Z,66.86
2022-09-07T07:58:20.413Z,65.95
2022-09-07T08:00:54.862Z,64.61
2022-09-07T08:03:23.542Z,64.64
2022-09-07T08:05:51.484Z,65.03
2022-09-07T08:08:19.302Z,64.86
2022-09-07T08:10:47.887Z,64.24
2022-09-07T08:13:15.600Z,62.84
2022-09-07T08:15:46.084Z,62.56
2022-09-07T08:18:14.219Z,62.65
2022-09-07T08:20:41.845Z,61.97
2022-09-07T08:23:10.824Z,61.90
2022-09-07T08:25:38.584Z,61.58
2022-09-07T08:28:06.588Z,61.31
2022-09-07T08:30:34.140Z,60.94
2022-09-07T08:33:03.208Z,60.62
2022-09-07T08:35:30.687Z,60.08
2022-09-07T08:37:58.473Z,59.82
2022-09-07T08:40:29.075Z,59.57
2022-09-07T08:43:08.619Z,59.11
2022-09-07T08:45:40.777Z,59.18
2022-09-07T08:48:15.627Z,58.54
2022-09-07T08:50:55.936Z,57.48
2022-09-07T08:53:24.996Z,57.95
2022-09-07T08:55:56.182Z,57.38
2022-09-07T08:58:48.116Z,57.79
2022-09-07T09:04:20.011Z,57.05
2022-09-07T09:07:02.706Z,57.11
2022-09-07T09:09:40.731Z,57.62
2022-09-07T09:12:18.645Z,57.59
2022-09-07T09:15:04.439Z,57.22
2022-09-07T09:17:36.562Z,56.89
2022-09-07T09:20:15.865Z,56.55
2022-09-07T09:22:46.654Z,56.52
2022-09-07T09:25:20.780Z,55.86
2022-09-07T09:27:50.801Z,55.51
2022-09-07T09:30:20.570Z,55.13
2022-09-07T09:32:50.571Z,55.68
2022-09-07T09:35:26.769Z,56.00
2022-09-07T09:37:54.309Z,56.12
2022-09-07T09:40:25.943Z,56.39
2022-09-07T09:43:04.435Z,56.18
2022-09-07T09:48:32.340Z,55.37
2022-09-07T09:53:56.727Z,55.37
2022-09-07T09:56:37.330Z,54.99
2022-09-07T10:05:26.826Z,54.98
2022-09-07T10:07:56.297Z,54.68
2022-09-07T10:10:24.186Z,54.61
2022-09-07T10:12:55.056Z,54.95
2022-09-07T10:15:41.245Z,54.74
2022-09-07T10:18:21.136Z,54.12
2022-09-07T10:20:48.770Z,53.10
2022-09-07T10:23:25.840Z,53.36
2022-09-07T10:25:53.527Z,52.84
2022-09-07T10:28:23.842Z,52.69
2022-09-07T10:31:04.133Z,51.87
2022-09-07T10:34:25.752Z,52.30
2022-09-07T10:36:39.335Z,50.98
2022-09-07T10:39:15.067Z,53.24
2022-09-07T10:41:53.874Z,50.79
2022-09-07T10:44:29.424Z,50.63
2022-09-07T10:47:03.872Z,51.07
2022-09-07T10:49:35.126Z,51.04
2022-09-07T10:52:15.581Z,51.00
2022-09-07T10:54:54.714Z,51.48
2022-09-07T10:57:34.302Z,51.75
2022-09-07T11:00:09.287Z,51.87
2022-09-07T11:05:50.092Z,51.08
2022-09-07T11:08:34.320Z,51.13
2022-09-07T11:14:19.116Z,51.29
2022-09-07T11:16:52.803Z,50.83
2022-09-07T11:19:38.723Z,51.08
2022-09-07T11:22:22.009Z,51.42
2022-09-07T11:27:48.716Z,51.13
2022-09-07T11:30:21.577Z,50.86
2022-09-07T11:32:59.591Z,51.08
2022-09-07T11:35:36.090Z,51.83
2022-09-07T11:38:13.856Z,52.07
2022-09-07T11:40:49.477Z,52.17
2022-09-07T11:43:23.497Z,51.66
2022-09-07T11:45:55.562Z,51.38
2022-09-07T11:48:30.420Z,51.15
2022-09-07T11:51:01.922Z,51.14
2022-09-07T11:53:32.858Z,51.58
2022-09-07T11:56:04.833Z,51.54
2022-09-07T11:58:50.225Z,51.78
2022-09-07T12:01:31.522Z,51.07
2022-09-07T12:04:16.451Z,51.79
2022-09-07T12:07:22.913Z,51.14
2022-09-07T12:10:15.533Z,51.55
2022-09-07T12:13:12.267Z,50.58
2022-09-07T12:15:48.937Z,49.47
2022-09-07T12:18:27.534Z,50.09
2022-09-07T12:20:55.159Z,49.86
2022-09-07T12:23:28.611Z,49.51
2022-09-07T12:26:39.554Z,47.93
2022-09-07T12:29:21.091Z,48.26
2022-09-07T12:32:07.298Z,48.86
2022-09-07T12:34:50.363Z,47.89
2022-09-07T12:37:38.715Z,47.52
2022-09-07T12:41:00.983Z,47.39
2022-09-07T12:43:34.874Z,47.06
2022-09-07T12:46:02.859Z,47.35
2022-09-07T12:48:49.472Z,46.89
2022-09-07T12:54:28.462Z,47.09
2022-09-07T13:00:02.868Z,47.07
2022-09-07T13:02:50.903Z,47.45
2022-09-07T13:05:36.426Z,47.47
2022-09-07T13:08:18.322Z,47.72
2022-09-07T13:10:47.141Z,47.53
2022-09-07T13:14:02.595Z,48.48
2022-09-07T13:16:28.548Z,47.92
2022-09-07T13:18:56.477Z,47.99
2022-09-07T13:21:50.013Z,48.82
2022-09-07T13:24:55.125Z,49.62
2022-09-07T13:27:33.798Z,49.17
2022-09-07T13:30:05.293Z,50.44
2022-09-07T13:35:24.477Z,48.56
2022-09-07T13:37:57.145Z,48.35
2022-09-07T13:40:27.450Z,48.25
2022-09-07T13:42:57.353Z,48.81
2022-09-07T13:45:31.102Z,48.70
2022-09-07T13:48:06.422Z,48.91
2022-09-07T13:50:45.088Z,48.00
2022-09-07T13:53:27.416Z,47.79
2022-09-07T13:56:05.376Z,48.16
2022-09-07T13:58:36.361Z,48.01
2022-09-07T14:01:06.720Z,48.69
2022-09-07T14:03:40.139Z,48.27
2022-09-07T14:06:33.079Z,47.97
2022-09-07T14:09:04.748Z,48.80
2022-09-07T14:11:41.321Z,48.47
2022-09-07T14:14:23.140Z,48.73
2022-09-07T14:16:55.534Z,49.17
2022-09-07T14:19:25.921Z,49.01
2022-09-07T14:22:01.949Z,48.69
2022-09-07T14:24:33.426Z,49.18
2022-09-07T14:27:01.226Z,48.96
2022-09-07T14:29:31.372Z,49.28
2022-09-07T14:32:01.049Z,49.67
2022-09-07T14:34:32.228Z,48.08
2022-09-07T14:37:04.573Z,48.31
2022-09-07T14:47:07.632Z,48.17
2022-09-07T14:49:35.805Z,48.65
2022-09-07T14:52:03.990Z,48.43
2022-09-07T14:54:34.795Z,48.17
2022-09-07T14:57:05.819Z,47.71
2022-09-07T14:59:39.670Z,48.44
2022-09-07T15:02:27.033Z,47.88
2022-09-07T15:05:23.428Z,46.86
2022-09-07T15:07:53.118Z,47.30
2022-09-07T15:10:41.961Z,47.52
2022-09-07T15:13:26.131Z,47.03
2022-09-07T15:15:58.903Z,47.36
2022-09-07T15:18:51.646Z,46.96
2022-09-07T15:21:19.759Z,48.39
2022-09-07T15:23:50.017Z,47.49
2022-09-07T15:29:10.531Z,47.59
2022-09-07T15:31:41.676Z,46.74
2022-09-07T15:34:14.172Z,46.55
2022-09-07T15:36:44.021Z,47.17
2022-09-07T15:39:17.486Z,45.98
2022-09-07T15:41:45.453Z,47.39
2022-09-07T15:44:13.910Z,46.41
2022-09-07T15:46:41.897Z,46.30
2022-09-07T15:49:10.326Z,46.11
2022-09-07T15:54:35.267Z,47.07
2022-09-07T15:59:52.365Z,46.12
2022-09-07T16:05:08.635Z,44.99
2022-09-07T16:10:25.237Z,43.98
2022-09-07T16:13:01.975Z,45.93
2022-09-07T16:15:30.232Z,44.98
2022-09-07T16:17:58.436Z,45.24
2022-09-07T16:20:26.143Z,44.78
2022-09-07T16:25:43.921Z,46.10
2022-09-07T16:28:11.896Z,45.31
2022-09-07T16:30:41.307Z,45.52
2022-09-07T16:33:09.191Z,46.56
2022-09-07T16:35:36.727Z,45.61
2022-09-07T16:40:53.391Z,44.83
2022-09-07T16:43:21.498Z,45.36
2022-09-07T16:46:04.784Z,46.33
2022-09-07T16:48:34.016Z,46.29
2022-09-07T16:51:02.786Z,47.49
2022-09-07T16:53:34.214Z,47.81
2022-09-07T16:56:02.950Z,47.78
2022-09-07T16:58:35.708Z,48.31
2022-09-07T17:01:04.688Z,49.10
2022-09-07T17:03:32.371Z,48.80
2022-09-07T17:06:00.889Z,49.77
2022-09-07T17:08:28.632Z,49.83
2022-09-07T17:11:01.168Z,51.06
2022-09-07T17:13:28.768Z,49.74
2022-09-07T17:16:02.109Z,51.38
2022-09-07T17:21:19.678Z,50.90
2022-09-07T17:23:54.300Z,51.19
2022-09-07T17:26:27.141Z,51.14
2022-09-07T17:28:56.552Z,52.48
2022-09-07T17:34:17.776Z,51.82
2022-09-07T17:36:45.339Z,52.72
2022-09-07T17:39:15.953Z,52.58
2022-09-07T17:41:46.257Z,53.74
2022-09-07T17:44:13.804Z,53.57
2022-09-07T17:46:41.516Z,54.08
2022-09-07T17:49:12.220Z,53.85
2022-09-07T17:51:40.402Z,54.16
2022-09-07T17:54:10.835Z,53.44
2022-09-07T17:56:39.648Z,53.96
2022-09-07T18:01:57.051Z,54.49
2022-09-07T18:04:25.037Z,54.77
2022-09-07T18:06:53.888Z,54.83
2022-09-07T18:09:21.690Z,56.06
2022-09-07T18:11:50.092Z,55.59
2022-09-07T18:14:19.997Z,54.86
2022-09-07T18:16:49.806Z,55.20
2022-09-07T18:19:18.716Z,55.91
2022-09-07T18:21:47.637Z,56.10
2022-09-07T18:24:17.535Z,56.23
2022-09-07T18:26:52.042Z,56.04
2022-09-07T18:29:29.371Z,56.34
2022-09-07T18:31:59.910Z,57.03
2022-09-07T18:34:28.671Z,56.94
2022-09-07T18:36:57.107Z,56.34
2022-09-07T18:39:24.775Z,57.00
2022-09-07T18:41:53.339Z,56.10
2022-09-07T18:47:21.137Z,56.16
2022-09-07T18:49:50.746Z,56.33
2022-09-07T18:55:07.852Z,55.81
2022-09-07T18:57:36.514Z,56.05
2022-09-07T19:00:07.262Z,57.13
2022-09-07T19:02:35.775Z,56.47
2022-09-07T19:07:51.638Z,56.26
2022-09-07T19:10:19.167Z,56.59
2022-09-07T19:12:46.692Z,56.27
2022-09-07T19:15:15.972Z,56.52
2022-09-07T19:17:43.691Z,56.41
2022-09-07T19:20:11.474Z,56.62
2022-09-07T19:22:39.257Z,56.82
2022-09-07T19:25:07.248Z,56.98
2022-09-07T19:27:34.746Z,57.28
2022-09-07T19:30:02.435Z,56.91
2022-09-07T19:32:31.621Z,57.28
2022-09-07T19:34:59.227Z,57.66
2022-09-07T19:37:28.824Z,57.51
2022-09-07T19:39:56.786Z,57.19
2022-09-07T19:42:24.985Z,57.55
2022-09-07T19:44:52.929Z,57.86
2022-09-07T19:47:21.146Z,57.33
2022-09-07T19:49:50.064Z,57.32
2022-09-07T19:52:17.560Z,57.21
2022-09-07T19:54:45.595Z,58.14
2022-09-07T19:57:13.079Z,57.53
2022-09-07T19:59:40.587Z,57.75
2022-09-07T20:02:09.701Z,58.14
2022-09-07T20:04:37.245Z,57.92
2022-09-07T20:07:06.503Z,57.92
2022-09-07T20:09:34.034Z,58.16
2022-09-07T20:12:03.649Z,58.57
2022-09-07T20:14:31.172Z,59.19
2022-09-07T20:16:58.666Z,59.28
2022-09-07T20:19:26.294Z,59.04
2022-09-07T20:21:55.572Z,59.14
2022-09-07T20:24:24.719Z,59.58
2022-09-07T20:26:52.244Z,59.57
2022-09-07T20:29:28.532Z,59.84
2022-09-07T20:31:57.178Z,59.11
2022-09-07T20:34:24.722Z,59.50
2022-09-07T20:36:52.911Z,59.43
2022-09-07T20:39:21.530Z,59.03
2022-09-07T20:41:50.546Z,59.39
2022-09-07T20:44:18.408Z,60.23
2022-09-07T20:46:46.077Z,60.15
2022-09-07T20:49:13.707Z,60.16
2022-09-07T20:51:41.213Z,59.99
2022-09-07T20:54:08.966Z,60.30
2022-09-07T20:56:36.623Z,60.71
2022-09-07T20:59:05.491Z,60.34
2022-09-07T21:01:34.979Z,60.44
2022-09-07T21:04:03.068Z,61.05
2022-09-07T21:06:32.604Z,59.95
2022-09-07T21:09:00.794Z,60.16
2022-09-07T21:11:30.165Z,60.87
2022-09-07T21:13:58.792Z,60.63
2022-09-07T21:16:28.903Z,60.63
2022-09-07T21:18:58.848Z,60.71
2022-09-07T21:21:27.682Z,60.92
2022-09-07T21:23:56.728Z,61.39
2022-09-07T21:26:25.000Z,60.96
2022-09-07T21:28:56.942Z,61.65
2022-09-07T21:31:25.152Z,61.97
2022-09-07T21:33:56.458Z,61.02
2022-09-07T21:36:24.649Z,60.78
2022-09-07T21:38:52.788Z,60.85
2022-09-07T21:41:22.367Z,60.87
2022-09-07T21:43:49.982Z,60.62
2022-09-07T21:46:19.585Z,61.13
2022-09-07T21:48:47.506Z,61.53
2022-09-07T21:51:17.251Z,61.37
2022-09-07T21:53:45.353Z,61.81
2022-09-07T21:56:14.936Z,60.66
2022-09-07T21:58:43.576Z,61.00
2022-09-07T22:01:12.660Z,60.57
2022-09-07T22:03:40.606Z,60.86
2022-09-07T22:06:09.714Z,60.62
2022-09-07T22:08:40.685Z,60.92
2022-09-07T22:11:10.391Z,61.21
2022-09-07T22:13:38.684Z,61.42
2022-09-07T22:16:07.986Z,61.32
2022-09-07T22:18:38.046Z,61.39
2022-09-07T22:21:07.695Z,61.56
2022-09-07T22:23:39.620Z,61.91
2022-09-07T22:26:08.733Z,61.23
2022-09-07T22:28:37.665Z,61.50
2022-09-07T22:31:13.144Z,61.57
2022-09-07T22:33:41.233Z,61.83
2022-09-07T22:36:14.339Z,61.58
2022-09-07T22:38:44.510Z,61.37
2022-09-07T22:41:14.130Z,60.60
2022-09-07T22:43:42.548Z,61.57
2022-09-07T22:46:11.107Z,63.68
2022-09-07T22:48:39.346Z,63.12
2022-09-07T22:51:07.345Z,62.91
2022-09-07T22:53:37.006Z,63.46
2022-09-07T22:56:09.277Z,64.20
2022-09-07T22:58:37.155Z,64.78
2022-09-07T23:01:05.995Z,64.60
2022-09-07T23:03:35.641Z,64.76
2022-09-07T23:06:04.084Z,64.04
2022-09-07T23:08:31.905Z,64.47
2022-09-07T23:11:04.414Z,64.41
2022-09-07T23:13:33.512Z,65.01
2022-09-07T23:16:05.527Z,64.65
2022-09-07T23:18:33.750Z,64.41
2022-09-07T23:21:02.222Z,64.03
2022-09-07T23:23:30.481Z,63.65
2022-09-07T23:25:58.017Z,64.00
2022-09-07T23:28:25.523Z,64.41
2022-09-07T23:30:54.939Z,64.36
2022-09-07T23:33:22.472Z,64.08
2022-09-07T23:35:57.326Z,64.45
2022-09-07T23:38:25.280Z,65.01
2022-09-07T23:40:52.804Z,64.77
2022-09-07T23:43:20.378Z,64.37
2022-09-07T23:45:48.059Z,64.34
2022-09-07T23:48:17.822Z,63.75
2022-09-07T23:50:46.346Z,63.43
2022-09-07T23:53:14.260Z,63.06
2022-09-07T23:55:42.190Z,63.29
2022-09-07T23:58:10.241Z,63.94
